createdAt,value
2019-06-01T00:00:12.496Z,60.10
2019-06-01T00:02:40.536Z,60.10
2019-06-01T00:05:07.739Z,60.30
2019-06-01T00:07:34.060Z,60.50
2019-06-01T00:10:00.613Z,60.40
2019-06-01T00:12:27.028Z,60.40
2019-06-01T00:14:53.359Z,60.50
2019-06-01T00:17:19.699Z,60.60
2019-06-01T00:19:46.273Z,61.10
2019-06-01T00:22:12.760Z,61.00
2019-06-01T00:24:39.081Z,60.90
2019-06-01T00:27:05.545Z,61.00
2019-06-01T00:29:31.888Z,61.30
2019-06-01T00:31:58.274Z,61.40
2019-06-01T00:34:24.502Z,61.60
2019-06-01T00:36:51.855Z,61.90
2019-06-01T00:39:18.375Z,62.70
2019-06-01T00:41:45.678Z,62.20
2019-06-01T00:44:12.383Z,62.40
2019-06-01T00:46:38.714Z,62.70
2019-06-01T00:49:05.048Z,62.90
2019-06-01T00:51:31.491Z,62.90
2019-06-01T00:53:57.913Z,62.90
2019-06-01T00:56:24.396Z,63.20
2019-06-01T00:58:51.846Z,63.10
2019-06-01T01:01:18.438Z,63.30
2019-06-01T01:03:45.991Z,63.40
2019-06-01T01:06:12.539Z,63.30
2019-06-01T01:08:39.078Z,63.40
2019-06-01T01:11:05.399Z,63.20
2019-06-01T01:13:31.731Z,64.20
2019-06-01T01:15:58.066Z,63.60
2019-06-01T01:18:24.491Z,63.70
2019-06-01T01:20:52.022Z,63.60
2019-06-01T01:23:18.607Z,63.80
2019-06-01T01:25:46.279Z,64.00
2019-06-01T01:28:12.785Z,64.10
2019-06-01T01:30:40.110Z,64.30
2019-06-01T01:33:06.573Z,64.20
2019-06-01T01:35:33.002Z,64.20
2019-06-01T01:37:59.539Z,64.20
2019-06-01T01:40:27.408Z,64.30
2019-06-01T01:42:54.424Z,64.30
2019-06-01T01:45:21.090Z,64.50
2019-06-01T01:47:49.360Z,64.70
2019-06-01T01:50:15.859Z,64.70
2019-06-01T01:52:42.238Z,64.60
2019-06-01T01:55:10.100Z,64.60
2019-06-01T01:57:36.534Z,64.50
2019-06-01T02:00:09.269Z,64.40
2019-06-01T02:02:35.596Z,64.40
2019-06-01T02:05:02.251Z,64.30
2019-06-01T02:07:28.636Z,64.50
2019-06-01T02:09:55.277Z,64.60
2019-06-01T02:12:21.786Z,64.50
2019-06-01T02:14:48.543Z,65.30
2019-06-01T02:17:14.861Z,64.50
2019-06-01T02:19:41.082Z,64.40
2019-06-01T02:22:07.391Z,64.40
2019-06-01T02:24:33.847Z,64.40
2019-06-01T02:27:01.301Z,64.50
2019-06-01T02:29:27.842Z,64.70
2019-06-01T02:31:54.710Z,64.80
2019-06-01T02:34:21.219Z,64.60
2019-06-01T02:36:47.652Z,64.90
2019-06-01T02:39:15.005Z,65.30
2019-06-01T02:41:41.466Z,65.40
2019-06-01T02:44:07.871Z,65.40
2019-06-01T02:46:35.773Z,65.40
2019-06-01T02:49:04.068Z,65.40
2019-06-01T02:51:30.547Z,65.40
2019-06-01T02:53:57.661Z,65.50
2019-06-01T02:56:24.128Z,65.60
2019-06-01T02:58:51.634Z,65.40
2019-06-01T03:01:24.476Z,65.50
2019-06-01T03:03:53.266Z,65.90
2019-06-01T03:06:19.999Z,65.80
2019-06-01T03:08:48.544Z,65.90
2019-06-01T03:11:18.531Z,66.20
2019-06-01T03:13:47.086Z,66.00
2019-06-01T03:16:17.302Z,66.50
2019-06-01T03:18:44.759Z,66.70
2019-06-01T03:21:13.239Z,66.80
2019-06-01T03:23:42.480Z,66.70
2019-06-01T03:26:12.319Z,66.70
2019-06-01T03:28:39.913Z,66.70
2019-06-01T03:31:08.867Z,66.60
2019-06-01T03:33:35.723Z,66.70
2019-06-01T03:36:02.787Z,66.70
2019-06-01T03:38:29.396Z,66.70
2019-06-01T03:40:56.271Z,67.00
2019-06-01T03:43:23.129Z,67.10
2019-06-01T03:45:49.442Z,67.20
2019-06-01T03:48:15.682Z,67.20
2019-06-01T03:50:41.984Z,67.20
2019-06-01T03:53:08.320Z,67.20
2019-06-01T03:55:34.986Z,67.00
2019-06-01T03:58:01.402Z,66.90
2019-06-01T04:00:27.977Z,67.10
2019-06-01T04:02:54.371Z,67.10
2019-06-01T04:05:20.702Z,67.20
2019-06-01T04:07:47.035Z,67.20
2019-06-01T04:10:13.674Z,67.30
2019-06-01T04:12:40.001Z,67.50
2019-06-01T04:15:10.106Z,67.30
2019-06-01T04:17:34.708Z,67.40
2019-06-01T04:20:02.114Z,67.60
2019-06-01T04:22:28.600Z,67.90
2019-06-01T04:24:54.931Z,68.00
2019-06-01T04:27:21.260Z,68.20
2019-06-01T04:29:49.376Z,68.30
2019-06-01T04:32:15.766Z,68.60
2019-06-01T04:34:42.095Z,68.60
2019-06-01T04:37:09.208Z,68.60
2019-06-01T04:39:35.676Z,68.80
2019-06-01T04:42:02.008Z,68.80
2019-06-01T04:44:28.554Z,69.00
2019-06-01T04:46:54.873Z,69.20
2019-06-01T04:49:21.409Z,69.40
2019-06-01T04:51:47.751Z,69.50
2019-06-01T04:54:15.891Z,69.60
2019-06-01T04:56:42.347Z,69.80
2019-06-01T04:59:08.946Z,70.30
2019-06-01T05:01:36.134Z,70.30
2019-06-01T05:04:02.670Z,70.50
2019-06-01T05:06:29.003Z,70.70
2019-06-01T05:08:55.332Z,70.60
2019-06-01T05:11:23.246Z,71.00
2019-06-01T05:13:49.533Z,71.00
2019-06-01T05:16:16.605Z,70.50
2019-06-01T05:18:42.997Z,71.80
2019-06-01T05:21:10.425Z,72.60
2019-06-01T05:23:36.997Z,73.00
2019-06-01T05:26:03.519Z,73.30
2019-06-01T05:28:29.999Z,73.50
2019-06-01T05:30:56.501Z,73.50
2019-06-01T05:33:36.517Z,73.50
2019-06-01T05:35:51.363Z,73.80
2019-06-01T05:38:18.603Z,73.60
2019-06-01T05:40:45.100Z,73.50
2019-06-01T05:43:15.719Z,73.30
2019-06-01T05:45:39.610Z,73.20
2019-06-01T05:48:05.945Z,72.90
2019-06-01T05:50:32.266Z,73.10
2019-06-01T05:52:58.593Z,73.50
2019-06-01T05:55:25.233Z,72.60
2019-06-01T05:57:51.664Z,72.50
2019-06-01T06:00:22.032Z,72.40
2019-06-01T06:02:48.422Z,73.00
2019-06-01T06:05:15.062Z,72.60
2019-06-01T06:07:41.388Z,72.60
2019-06-01T06:10:08.334Z,73.20
2019-06-01T06:12:34.884Z,74.30
2019-06-01T06:15:01.199Z,73.80
2019-06-01T06:17:27.534Z,73.00
2019-06-01T06:19:53.967Z,72.00
2019-06-01T06:22:20.703Z,70.70
2019-06-01T06:25:06.925Z,69.60
2019-06-01T06:27:33.466Z,68.90
2019-06-01T06:29:59.825Z,68.40
2019-06-01T06:32:26.271Z,67.10
2019-06-01T06:34:52.691Z,66.40
2019-06-01T06:37:19.762Z,66.50
2019-06-01T06:39:46.014Z,64.90
2019-06-01T06:42:12.194Z,63.50
2019-06-01T06:44:38.347Z,61.90
2019-06-01T06:47:04.456Z,60.90
2019-06-01T06:49:30.875Z,60.70
2019-06-01T06:51:57.280Z,60.50
2019-06-01T06:54:23.934Z,59.00
2019-06-01T06:56:50.486Z,58.90
2019-06-01T06:59:16.939Z,57.70
2019-06-01T07:01:43.707Z,58.00
2019-06-01T07:04:12.953Z,57.80
2019-06-01T07:06:38.178Z,56.90
2019-06-01T07:09:05.189Z,55.70
2019-06-01T07:11:31.579Z,55.80
2019-06-01T07:13:57.972Z,55.70
2019-06-01T07:16:25.474Z,55.40
2019-06-01T07:18:52.191Z,55.20
2019-06-01T07:21:19.504Z,55.10
2019-06-01T07:23:46.076Z,54.60
2019-06-01T07:26:12.398Z,54.70
2019-06-01T07:28:38.718Z,55.00
2019-06-01T07:31:05.049Z,53.90
2019-06-01T07:33:32.636Z,54.20
2019-06-01T07:36:00.953Z,54.00
2019-06-01T07:38:28.738Z,53.40
2019-06-01T07:40:55.412Z,52.80
2019-06-01T07:43:22.607Z,53.10
2019-06-01T07:45:49.074Z,52.40
2019-06-01T07:48:16.352Z,52.30
2019-06-01T07:50:42.762Z,51.60
2019-06-01T07:53:09.396Z,50.90
2019-06-01T07:55:35.714Z,51.50
2019-06-01T07:58:02.057Z,51.30
2019-06-01T08:00:29.013Z,51.50
2019-06-01T08:02:55.439Z,51.70
2019-06-01T08:05:23.237Z,51.90
2019-06-01T08:07:50.042Z,51.80
2019-06-01T08:10:16.329Z,52.10
2019-06-01T08:12:42.632Z,51.70
2019-06-01T08:15:09.655Z,51.80
2019-06-01T08:17:36.082Z,52.10
2019-06-01T08:20:03.536Z,52.50
2019-06-01T08:22:30.107Z,53.10
2019-06-01T08:24:56.404Z,52.70
2019-06-01T08:27:24.287Z,53.50
2019-06-01T08:29:51.021Z,52.30
2019-06-01T08:32:17.353Z,52.10
2019-06-01T08:34:43.986Z,52.40
2019-06-01T08:37:10.533Z,51.80
2019-06-01T08:39:36.949Z,51.70
2019-06-01T08:42:03.381Z,52.00
2019-06-01T08:44:29.712Z,51.70
2019-06-01T08:46:56.045Z,51.80
2019-06-01T08:49:23.795Z,51.60
2019-06-01T08:51:50.245Z,51.70
2019-06-01T08:54:16.534Z,51.30
2019-06-01T08:56:42.894Z,51.50
2019-06-01T08:59:09.329Z,51.30
2019-06-01T09:01:35.659Z,51.30
2019-06-01T09:04:03.611Z,51.60
2019-06-01T09:06:30.956Z,52.00
2019-06-01T09:08:57.417Z,51.60
2019-06-01T09:11:24.988Z,50.50
2019-06-01T09:13:52.403Z,50.80
2019-06-01T09:16:18.829Z,50.30
2019-06-01T09:18:45.131Z,50.00
2019-06-01T09:21:11.627Z,49.60
2019-06-01T09:23:38.064Z,49.60
2019-06-01T09:26:04.392Z,49.40
2019-06-01T09:28:31.987Z,49.20
2019-06-01T09:30:58.484Z,49.80
2019-06-01T09:33:25.988Z,50.50
2019-06-01T09:35:55.914Z,50.50
2019-06-01T09:38:20.547Z,50.20
2019-06-01T09:40:46.895Z,49.40
2019-06-01T09:43:13.705Z,49.10
2019-06-01T09:45:40.156Z,49.10
2019-06-01T09:48:06.585Z,49.40
2019-06-01T09:50:33.395Z,49.40
2019-06-01T09:52:59.861Z,48.20
2019-06-01T09:55:27.548Z,47.70
2019-06-01T09:57:54.672Z,47.70
2019-06-01T10:00:21.590Z,47.50
2019-06-01T10:02:47.899Z,47.70
2019-06-01T10:05:14.789Z,47.80
2019-06-01T10:07:41.638Z,47.90
2019-06-01T10:10:08.692Z,48.20
2019-06-01T10:12:36.047Z,48.00
2019-06-01T10:15:03.931Z,47.70
2019-06-01T10:17:30.545Z,47.30
2019-06-01T10:22:24.110Z,45.90
2019-06-01T10:24:50.406Z,46.80
2019-06-01T10:27:16.707Z,47.00
2019-06-01T10:29:43.207Z,47.00
2019-06-01T10:32:09.552Z,47.10
2019-06-01T10:34:35.854Z,47.00
2019-06-01T10:37:02.167Z,47.20
2019-06-01T10:39:28.576Z,46.50
2019-06-01T10:41:54.833Z,47.00
2019-06-01T10:44:21.196Z,46.90
2019-06-01T10:46:47.542Z,46.70
2019-06-01T10:49:13.834Z,46.70
2019-06-01T10:51:40.464Z,46.30
2019-06-01T10:54:08.473Z,45.70
2019-06-01T10:56:34.690Z,45.10
2019-06-01T10:59:01.128Z,44.60
2019-06-01T11:01:27.564Z,44.00
2019-06-01T11:03:53.913Z,43.40
2019-06-01T11:06:36.195Z,44.10
2019-06-01T11:08:48.508Z,44.00
2019-06-01T11:11:15.233Z,44.90
2019-06-01T11:13:41.563Z,44.70
2019-06-01T11:16:07.827Z,43.70
2019-06-01T11:18:35.204Z,43.40
2019-06-01T11:21:01.681Z,43.90
2019-06-01T11:23:27.952Z,43.50
2019-06-01T11:25:54.342Z,43.40
2019-06-01T11:28:20.776Z,43.00
2019-06-01T11:30:47.208Z,42.30
2019-06-01T11:33:13.846Z,42.90
2019-06-01T11:35:41.454Z,43.00
2019-06-01T11:38:08.145Z,43.20
2019-06-01T11:40:34.678Z,42.90
2019-06-01T11:43:00.998Z,42.30
2019-06-01T11:45:27.679Z,42.40
2019-06-01T11:47:53.986Z,41.80
2019-06-01T11:50:20.412Z,41.10
2019-06-01T11:52:46.844Z,41.40
2019-06-01T11:55:13.540Z,40.90
2019-06-01T11:57:41.208Z,41.20
2019-06-01T12:00:13.227Z,41.80
2019-06-01T12:02:41.796Z,41.80
2019-06-01T12:05:08.435Z,41.80
2019-06-01T12:07:35.691Z,41.20
2019-06-01T12:10:04.264Z,40.50
2019-06-01T12:12:30.552Z,40.60
2019-06-01T12:14:57.031Z,40.20
2019-06-01T12:17:23.590Z,40.50
2019-06-01T12:19:50.005Z,41.00
2019-06-01T12:22:16.369Z,39.80
2019-06-01T12:24:43.073Z,39.90
2019-06-01T12:27:09.398Z,39.70
2019-06-01T12:29:35.829Z,39.30
2019-06-01T12:32:02.263Z,39.60
2019-06-01T12:34:28.626Z,39.80
2019-06-01T12:36:55.025Z,40.20
2019-06-01T12:39:21.355Z,40.70
2019-06-01T12:41:47.869Z,40.60
2019-06-01T12:44:14.324Z,40.60
2019-06-01T12:46:41.732Z,41.60
2019-06-01T12:49:08.661Z,40.30
2019-06-01T12:51:35.159Z,40.30
2019-06-01T12:54:03.717Z,40.10
2019-06-01T12:56:30.072Z,39.40
2019-06-01T12:58:56.398Z,39.30
2019-06-01T13:01:22.744Z,40.10
2019-06-01T13:03:49.661Z,39.60
2019-06-01T13:06:16.037Z,39.40
2019-06-01T13:08:42.960Z,39.90
2019-06-01T13:11:09.289Z,39.30
2019-06-01T13:13:35.593Z,39.50
2019-06-01T13:16:01.893Z,38.70
2019-06-01T13:18:28.431Z,38.90
2019-06-01T13:20:54.731Z,39.00
2019-06-01T13:23:22.990Z,38.80
2019-06-01T13:25:49.723Z,39.00
2019-06-01T13:28:15.981Z,39.50
2019-06-01T13:30:42.503Z,39.70
2019-06-01T13:33:08.938Z,39.20
2019-06-01T13:35:35.360Z,39.30
2019-06-01T13:38:11.860Z,39.20
2019-06-01T13:40:29.964Z,38.90
2019-06-01T13:42:56.313Z,39.00
2019-06-01T13:45:22.829Z,39.00
2019-06-01T13:47:49.871Z,38.40
2019-06-01T13:50:16.616Z,38.20
2019-06-01T13:52:43.890Z,37.80
2019-06-01T13:55:11.838Z,37.40
2019-06-01T13:57:39.628Z,38.10
2019-06-01T14:00:07.913Z,38.90
2019-06-01T14:02:34.311Z,37.50
2019-06-01T14:05:00.744Z,37.80
2019-06-01T14:07:27.074Z,38.00
2019-06-01T14:09:53.725Z,37.60
2019-06-01T14:12:20.146Z,37.50
2019-06-01T14:14:47.466Z,36.70
2019-06-01T14:17:13.937Z,36.80
2019-06-01T14:19:40.370Z,37.10
2019-06-01T14:22:07.105Z,37.30
2019-06-01T14:24:33.778Z,37.40
2019-06-01T14:27:00.174Z,37.40
2019-06-01T14:29:26.447Z,36.80
2019-06-01T14:31:53.979Z,37.00
2019-06-01T14:34:20.911Z,37.20
2019-06-01T14:36:48.447Z,36.50
2019-06-01T14:39:14.895Z,36.60
2019-06-01T14:41:41.382Z,36.10
2019-06-01T14:44:07.867Z,36.20
2019-06-01T14:46:34.196Z,36.40
2019-06-01T14:49:00.529Z,36.80
2019-06-01T14:51:26.861Z,36.50
2019-06-01T14:53:53.681Z,37.20
2019-06-01T14:56:20.243Z,36.40
2019-06-01T14:58:47.739Z,36.20
2019-06-01T15:01:30.937Z,35.80
2019-06-01T15:03:42.502Z,35.10
2019-06-01T15:06:08.840Z,35.50
2019-06-01T15:08:35.163Z,35.50
2019-06-01T15:11:01.495Z,35.30
2019-06-01T15:13:27.866Z,35.40
2019-06-01T15:15:55.556Z,35.90
2019-06-01T15:18:22.023Z,36.00
2019-06-01T15:20:49.612Z,36.40
2019-06-01T15:23:16.011Z,36.00
2019-06-01T15:25:42.345Z,36.00
2019-06-01T15:28:08.669Z,35.70
2019-06-01T15:30:35.108Z,35.30
2019-06-01T15:33:03.217Z,35.40
2019-06-01T15:35:29.642Z,35.10
2019-06-01T15:37:59.818Z,35.10
2019-06-01T15:40:24.113Z,35.20
2019-06-01T15:42:51.917Z,35.50
2019-06-01T15:45:19.129Z,35.90
2019-06-01T15:47:45.456Z,35.30
2019-06-01T15:50:13.458Z,35.60
2019-06-01T15:52:41.453Z,35.60
2019-06-01T15:55:09.776Z,35.50
2019-06-01T15:57:36.106Z,36.10
2019-06-01T16:00:08.426Z,35.60
2019-06-01T16:02:34.751Z,35.70
2019-06-01T16:05:01.283Z,35.40
2019-06-01T16:07:27.880Z,35.60
2019-06-01T16:09:55.305Z,35.10
2019-06-01T16:12:21.871Z,35.30
2019-06-01T16:14:48.303Z,35.20
2019-06-01T16:17:15.846Z,35.40
2019-06-01T16:19:42.194Z,35.80
2019-06-01T16:22:08.628Z,36.00
2019-06-01T16:24:35.059Z,36.40
2019-06-01T16:27:02.548Z,36.60
2019-06-01T16:29:29.052Z,36.40
2019-06-01T16:31:56.521Z,36.20
2019-06-01T16:34:23.245Z,36.20
2019-06-01T16:36:49.587Z,35.90
2019-06-01T16:39:15.908Z,36.20
2019-06-01T16:41:42.239Z,36.00
2019-06-01T16:44:09.593Z,35.80
2019-06-01T16:46:35.925Z,35.60
2019-06-01T16:49:03.617Z,35.60
2019-06-01T16:51:49.371Z,35.50
2019-06-01T16:54:15.807Z,35.30
2019-06-01T16:56:42.135Z,35.80
2019-06-01T16:59:08.464Z,36.00
2019-06-01T17:01:34.763Z,36.00
2019-06-01T17:04:01.127Z,36.10
2019-06-01T17:06:27.867Z,36.30
2019-06-01T17:08:54.300Z,36.40
2019-06-01T17:11:20.627Z,36.10
2019-06-01T17:13:46.959Z,36.00
2019-06-01T17:16:13.393Z,35.60
2019-06-01T17:18:39.827Z,35.20
2019-06-01T17:21:07.481Z,35.20
2019-06-01T17:23:33.921Z,35.30
2019-06-01T17:26:00.262Z,35.10
2019-06-01T17:28:26.582Z,35.00
2019-06-01T17:30:52.909Z,35.10
2019-06-01T17:33:19.251Z,35.30
2019-06-01T17:35:45.569Z,35.50
2019-06-01T17:38:12.173Z,36.00
2019-06-01T17:40:42.774Z,36.10
2019-06-01T17:43:07.149Z,36.00
2019-06-01T17:45:34.276Z,36.10
2019-06-01T17:48:17.075Z,36.70
2019-06-01T17:50:28.928Z,36.80
2019-06-01T17:52:55.419Z,37.10
2019-06-01T17:55:38.236Z,37.10
2019-06-01T17:58:07.527Z,37.00
2019-06-01T18:00:34.794Z,37.10
2019-06-01T18:03:01.652Z,37.00
2019-06-01T18:05:28.065Z,36.80
2019-06-01T18:07:54.483Z,37.10
2019-06-01T18:10:22.877Z,37.40
2019-06-01T18:12:49.272Z,38.10
2019-06-01T18:15:15.541Z,37.20
2019-06-01T18:17:41.949Z,37.10
2019-06-01T18:20:08.935Z,37.40
2019-06-01T18:22:35.557Z,37.40
2019-06-01T18:25:04.493Z,37.40
2019-06-01T18:27:30.983Z,38.00
2019-06-01T18:29:59.013Z,38.60
2019-06-01T18:32:25.480Z,39.00
2019-06-01T18:34:51.876Z,39.30
2019-06-01T18:37:18.243Z,39.60
2019-06-01T18:39:47.807Z,39.90
2019-06-01T18:42:12.707Z,40.40
2019-06-01T18:44:39.080Z,40.60
2019-06-01T18:47:05.702Z,40.90
2019-06-01T18:49:32.152Z,41.00
2019-06-01T18:51:58.482Z,41.00
2019-06-01T18:54:25.061Z,41.00
2019-06-01T18:56:51.447Z,40.70
2019-06-01T18:59:23.468Z,40.40
2019-06-01T19:01:48.208Z,40.20
2019-06-01T19:04:15.965Z,40.20
2019-06-01T19:06:42.485Z,40.20
2019-06-01T19:09:09.385Z,40.40
2019-06-01T19:11:36.702Z,40.50
2019-06-01T19:14:03.136Z,40.70
2019-06-01T19:16:29.464Z,40.90
2019-06-01T19:18:55.794Z,41.00
2019-06-01T19:21:22.126Z,42.00
2019-06-01T19:23:48.658Z,41.50
2019-06-01T19:26:16.483Z,41.80
2019-06-01T19:28:43.160Z,42.20
2019-06-01T19:31:11.116Z,42.50
2019-06-01T19:33:37.880Z,42.60
2019-06-01T19:36:04.666Z,43.50
2019-06-01T19:38:31.869Z,43.00
2019-06-01T19:40:58.198Z,43.30
2019-06-01T19:43:24.631Z,43.60
2019-06-01T19:45:50.956Z,43.60
2019-06-01T19:48:18.749Z,43.90
2019-06-01T19:50:45.575Z,44.10
2019-06-01T19:53:12.703Z,44.30
2019-06-01T19:55:39.350Z,44.50
2019-06-01T19:58:05.688Z,44.80
2019-06-01T20:00:32.010Z,44.90
2019-06-01T20:02:58.546Z,45.20
2019-06-01T20:05:25.093Z,45.50
2019-06-01T20:07:51.532Z,45.60
2019-06-01T20:10:18.518Z,45.80
2019-06-01T20:12:44.965Z,45.90
2019-06-01T20:15:13.202Z,46.30
2019-06-01T20:17:39.805Z,46.50
2019-06-01T20:20:07.426Z,46.70
2019-06-01T20:22:33.801Z,47.10
2019-06-01T20:25:00.232Z,47.20
2019-06-01T20:27:27.234Z,47.20
2019-06-01T20:29:53.815Z,47.50
2019-06-01T20:32:20.247Z,47.80
2019-06-01T20:34:46.578Z,47.90
2019-06-01T20:37:13.906Z,48.80
2019-06-01T20:39:40.324Z,48.40
2019-06-01T20:42:20.771Z,48.80
2019-06-01T20:44:35.279Z,49.00
2019-06-01T20:47:01.712Z,49.00
2019-06-01T20:49:27.989Z,49.30
2019-06-01T20:51:54.379Z,49.80
2019-06-01T20:54:21.053Z,50.00
2019-06-01T20:56:47.645Z,50.10
2019-06-01T20:59:17.215Z,50.10
2019-06-01T21:01:42.099Z,50.40
2019-06-01T21:04:08.450Z,50.50
2019-06-01T21:06:35.129Z,50.70
2019-06-01T21:09:01.447Z,50.90
2019-06-01T21:11:27.789Z,51.00
2019-06-01T21:13:54.107Z,51.30
2019-06-01T21:16:20.449Z,51.40
2019-06-01T21:18:46.783Z,51.60
2019-06-01T21:21:14.289Z,52.30
2019-06-01T21:23:40.664Z,52.50
2019-06-01T21:26:07.298Z,51.90
2019-06-01T21:28:33.750Z,52.10
2019-06-01T21:31:00.060Z,52.10
2019-06-01T21:33:28.811Z,52.30
2019-06-01T21:35:54.566Z,52.50
2019-06-01T21:38:21.375Z,52.70
2019-06-01T21:40:47.942Z,53.10
2019-06-01T21:43:26.118Z,53.20
2019-06-01T21:45:43.854Z,53.50
2019-06-01T21:48:10.248Z,53.60
2019-06-01T21:50:36.641Z,53.80
2019-06-01T21:53:03.295Z,53.70
2019-06-01T21:55:29.639Z,53.70
2019-06-01T21:57:56.041Z,54.10
2019-06-01T22:00:27.961Z,54.20
2019-06-01T22:02:54.873Z,54.70
2019-06-01T22:05:21.281Z,54.60
2019-06-01T22:07:47.502Z,54.80
2019-06-01T22:10:13.840Z,54.70
2019-06-01T22:12:40.273Z,55.10
2019-06-01T22:15:06.889Z,55.10
2019-06-01T22:17:33.240Z,55.30
2019-06-01T22:20:01.226Z,55.50
2019-06-01T22:22:28.155Z,55.50
2019-06-01T22:24:54.716Z,55.50
2019-06-01T22:27:22.177Z,55.60
2019-06-01T22:29:48.681Z,55.80
2019-06-01T22:32:15.012Z,55.90
2019-06-01T22:34:41.445Z,56.10
2019-06-01T22:37:07.878Z,57.00
2019-06-01T22:39:34.245Z,56.40
2019-06-01T22:42:00.636Z,56.60
2019-06-01T22:44:26.920Z,56.60
2019-06-01T22:46:53.401Z,56.60
2019-06-01T22:49:20.647Z,57.00
2019-06-01T22:51:47.089Z,57.20
2019-06-01T22:54:13.418Z,57.40
2019-06-01T22:56:39.751Z,57.90
2019-06-01T22:59:06.014Z,57.50
2019-06-01T23:01:32.933Z,57.60
2019-06-01T23:03:59.337Z,57.60
2019-06-01T23:06:25.584Z,57.60
2019-06-01T23:08:52.435Z,57.70
2019-06-01T23:11:18.770Z,57.90
2019-06-01T23:13:53.237Z,58.30
2019-06-01T23:16:13.049Z,58.50
2019-06-01T23:18:39.500Z,58.60
2019-06-01T23:21:05.717Z,58.70
2019-06-01T23:23:32.279Z,58.80
2019-06-01T23:25:58.581Z,59.10
2019-06-01T23:28:26.128Z,59.30
2019-06-01T23:30:52.456Z,59.30
2019-06-01T23:33:18.802Z,59.40
2019-06-01T23:35:45.131Z,59.50
2019-06-01T23:38:11.465Z,59.40
2019-06-01T23:40:37.895Z,60.20
2019-06-01T23:43:04.312Z,59.80
2019-06-01T23:45:32.883Z,60.00
2019-06-01T23:47:58.831Z,60.10
2019-06-01T23:50:25.162Z,60.00
2019-06-01T23:52:51.494Z,60.00
2019-06-01T23:55:17.839Z,60.00
2019-06-01T23:57:44.154Z,60.10
